createdAt,value
2023-02-25T00:02:25.085Z,4.64
2023-02-25T00:05:31.702Z,4.61
2023-02-25T00:08:34.846Z,4.57
2023-02-25T00:11:36.685Z,4.48
2023-02-25T00:14:38.359Z,4.42
2023-02-25T00:17:40.189Z,4.40
2023-02-25T00:20:43.334Z,4.44
2023-02-25T00:23:46.790Z,4.36
2023-02-25T00:26:48.559Z,4.29
2023-02-25T00:29:51.945Z,4.17
2023-02-25T00:32:53.868Z,4.06
2023-02-25T00:35:57.183Z,3.97
2023-02-25T00:38:59.088Z,3.88
2023-02-25T00:42:00.763Z,3.82
2023-02-25T00:45:02.786Z,3.69
2023-02-25T00:48:04.933Z,3.65
2023-02-25T00:51:09.657Z,3.54
2023-02-25T00:54:11.409Z,3.41
2023-02-25T00:57:13.109Z,3.28
2023-02-25T01:00:18.311Z,3.52
2023-02-25T01:03:20.065Z,3.59
2023-02-25T01:06:24.543Z,3.51
2023-02-25T01:09:26.745Z,3.48
2023-02-25T01:12:28.613Z,3.58
2023-02-25T01:15:30.843Z,3.64
2023-02-25T01:18:34.806Z,3.70
2023-02-25T01:21:41.947Z,3.72
2023-02-25T01:24:43.780Z,3.77
2023-02-25T01:27:45.556Z,3.81
2023-02-25T01:30:47.504Z,3.76
2023-02-25T01:33:49.278Z,3.70
2023-02-25T01:36:52.736Z,3.66
2023-02-25T01:39:54.495Z,3.65
2023-02-25T01:42:56.248Z,3.68
2023-02-25T01:45:58.072Z,3.68
2023-02-25T01:49:00.451Z,3.67
2023-02-25T01:52:08.466Z,3.72
2023-02-25T01:55:10.890Z,3.76
2023-02-25T01:58:13.030Z,3.79
2023-02-25T02:01:20.269Z,3.80
2023-02-25T02:04:22.762Z,3.80
2023-02-25T02:07:26.009Z,3.92
2023-02-25T02:10:27.867Z,3.87
2023-02-25T02:13:31.677Z,3.86
2023-02-25T02:16:50.178Z,3.81
2023-02-25T02:20:13.233Z,3.93
2023-02-25T02:23:30.633Z,3.91
2023-02-25T02:26:49.145Z,3.88
2023-02-25T02:30:17.399Z,3.89
2023-02-25T02:33:29.307Z,3.88
2023-02-25T02:36:41.385Z,3.86
2023-02-25T02:39:54.639Z,3.79
2023-02-25T02:43:06.899Z,3.78
2023-02-25T02:46:15.790Z,3.73
2023-02-25T02:49:27.032Z,3.74
2023-02-25T02:52:31.704Z,3.73
2023-02-25T02:55:37.575Z,3.75
2023-02-25T02:58:44.365Z,3.87
2023-02-25T03:01:51.496Z,3.86
2023-02-25T03:05:02.130Z,3.85
2023-02-25T03:08:07.932Z,3.82
2023-02-25T03:11:11.579Z,3.82
2023-02-25T03:14:14.667Z,3.82
2023-02-25T03:17:21.652Z,3.82
2023-02-25T03:20:28.349Z,3.82
2023-02-25T03:23:38.277Z,3.79
2023-02-25T03:26:42.663Z,3.77
2023-02-25T03:29:45.177Z,3.75
2023-02-25T03:32:50.080Z,3.75
2023-02-25T03:35:56.159Z,3.76
2023-02-25T03:39:02.730Z,3.76
2023-02-25T03:42:06.228Z,3.71
2023-02-25T03:45:13.512Z,3.78
2023-02-25T03:48:19.038Z,3.72
2023-02-25T03:51:29.334Z,3.80
2023-02-25T03:54:31.087Z,3.71
2023-02-25T03:57:36.784Z,3.67
2023-02-25T04:00:42.913Z,3.65
2023-02-25T04:03:44.801Z,3.71
2023-02-25T04:06:49.122Z,3.75
2023-02-25T04:09:51.362Z,3.89
2023-02-25T04:12:54.077Z,3.89
2023-02-25T04:15:56.529Z,3.94
2023-02-25T04:18:59.288Z,3.85
2023-02-25T04:22:02.396Z,3.90
2023-02-25T04:25:05.204Z,3.76
2023-02-25T04:28:07.112Z,3.73
2023-02-25T04:31:09.235Z,3.87
2023-02-25T04:34:11.108Z,3.93
2023-02-25T04:37:14.415Z,3.82
2023-02-25T04:40:18.973Z,3.78
2023-02-25T04:43:23.892Z,3.80
2023-02-25T04:46:26.792Z,3.76
2023-02-25T04:49:28.804Z,3.66
2023-02-25T04:52:31.811Z,3.67
2023-02-25T04:55:36.063Z,3.66
2023-02-25T04:58:38.800Z,3.75
2023-02-25T05:01:41.022Z,3.78
2023-02-25T05:04:43.261Z,3.81
2023-02-25T05:07:46.503Z,3.74
2023-02-25T05:10:48.621Z,3.69
2023-02-25T05:13:55.599Z,3.81
2023-02-25T05:16:57.435Z,3.80
2023-02-25T05:19:59.197Z,3.88
2023-02-25T05:23:04.997Z,3.91
2023-02-25T05:26:07.498Z,3.81
2023-02-25T05:29:09.832Z,3.80
2023-02-25T05:32:12.055Z,3.81
2023-02-25T05:35:14.260Z,3.87
2023-02-25T05:38:17.349Z,4.04
2023-02-25T05:41:19.231Z,4.04
2023-02-25T05:44:21.025Z,4.13
2023-02-25T05:47:24.976Z,4.08
2023-02-25T05:50:28.410Z,4.14
2023-02-25T05:53:31.622Z,4.05
2023-02-25T05:56:33.408Z,4.10
2023-02-25T05:59:36.726Z,4.08
2023-02-25T06:02:39.199Z,4.05
2023-02-25T06:05:41.825Z,4.11
2023-02-25T06:08:46.932Z,4.10
2023-02-25T06:11:49.197Z,4.06
2023-02-25T06:14:51.347Z,4.08
2023-02-25T06:17:53.215Z,4.04
2023-02-25T06:20:54.974Z,4.06
2023-02-25T06:23:58.329Z,3.96
2023-02-25T06:27:00.513Z,3.88
2023-02-25T06:30:04.246Z,3.97
2023-02-25T06:33:06.107Z,4.12
2023-02-25T06:36:08.673Z,4.12
2023-02-25T06:39:11.724Z,4.16
2023-02-25T06:42:13.795Z,4.15
2023-02-25T06:45:15.816Z,4.06
2023-02-25T06:48:17.654Z,4.13
2023-02-25T06:51:19.336Z,4.24
2023-02-25T06:54:22.494Z,4.24
2023-02-25T06:57:24.444Z,4.29
2023-02-25T07:00:26.520Z,4.31
2023-02-25T07:03:28.324Z,4.34
2023-02-25T07:06:30.378Z,4.32
2023-02-25T07:09:33.595Z,4.37
2023-02-25T07:12:35.363Z,4.21
2023-02-25T07:15:37.236Z,4.15
2023-02-25T07:18:39.261Z,4.28
2023-02-25T07:21:40.973Z,4.24
2023-02-25T07:24:45.307Z,4.29
2023-02-25T07:27:47.240Z,4.28
2023-02-25T07:30:49.155Z,4.28
2023-02-25T07:33:51.297Z,4.28
2023-02-25T07:36:53.274Z,4.33
2023-02-25T07:40:02.449Z,4.38
2023-02-25T07:43:04.276Z,4.31
2023-02-25T07:46:06.937Z,4.31
2023-02-25T07:49:08.847Z,4.25
2023-02-25T07:52:10.616Z,4.28
2023-02-25T07:55:14.168Z,4.37
2023-02-25T07:58:16.033Z,4.23
2023-02-25T08:01:23.678Z,4.31
2023-02-25T08:04:26.226Z,4.40
2023-02-25T08:07:29.382Z,4.42
2023-02-25T08:10:32.734Z,4.47
2023-02-25T08:13:35.125Z,4.73
2023-02-25T08:16:37.719Z,4.86
2023-02-25T08:19:39.723Z,4.72
2023-02-25T08:22:41.652Z,4.73
2023-02-25T08:25:44.869Z,4.89
2023-02-25T08:28:47.040Z,4.74
2023-02-25T08:31:50.599Z,4.54
2023-02-25T08:34:52.873Z,4.37
2023-02-25T08:37:54.899Z,4.54
2023-02-25T08:41:00.354Z,4.66
2023-02-25T08:44:02.284Z,4.58
2023-02-25T08:47:05.357Z,4.62
2023-02-25T08:50:08.266Z,4.76
2023-02-25T08:53:10.335Z,4.85
2023-02-25T08:56:16.309Z,4.72
2023-02-25T08:59:18.111Z,4.82
2023-02-25T09:02:19.914Z,4.59
2023-02-25T09:05:24.138Z,4.78
2023-02-25T09:08:25.815Z,4.76
2023-02-25T09:11:28.946Z,4.68
2023-02-25T09:14:31.020Z,4.57
2023-02-25T09:17:33.046Z,4.62
2023-02-25T09:20:34.821Z,4.66
2023-02-25T09:23:36.626Z,4.82
2023-02-25T09:26:39.811Z,4.57
2023-02-25T09:29:41.709Z,4.64
2023-02-25T09:32:45.414Z,4.53
2023-02-25T09:35:47.405Z,4.70
2023-02-25T09:38:50.523Z,4.78
2023-02-25T09:41:57.805Z,5.02
2023-02-25T09:45:02.422Z,4.92
2023-02-25T09:48:12.938Z,5.26
2023-02-25T09:51:20.904Z,5.20
2023-02-25T09:54:29.993Z,5.40
2023-02-25T09:57:41.514Z,5.32
2023-02-25T10:00:46.403Z,5.34
2023-02-25T10:03:54.325Z,5.42
2023-02-25T10:07:01.512Z,5.24
2023-02-25T10:10:09.144Z,5.38
2023-02-25T10:13:26.142Z,5.32
2023-02-25T10:16:42.963Z,5.07
2023-02-25T10:20:00.399Z,5.36
2023-02-25T10:23:14.711Z,5.53
2023-02-25T10:26:20.545Z,5.51
2023-02-25T10:29:28.392Z,5.52
2023-02-25T10:32:34.121Z,5.38
2023-02-25T10:35:39.498Z,5.29
2023-02-25T10:38:47.168Z,5.61
2023-02-25T10:41:49.392Z,5.60
2023-02-25T10:44:54.738Z,5.61
2023-02-25T10:48:06.626Z,5.56
2023-02-25T10:51:12.433Z,5.51
2023-02-25T10:54:14.386Z,5.56
2023-02-25T10:57:19.002Z,5.43
2023-02-25T11:00:27.349Z,5.53
2023-02-25T11:03:31.078Z,5.44
2023-02-25T11:06:35.436Z,5.56
2023-02-25T11:09:37.320Z,5.88
2023-02-25T11:12:43.055Z,5.83
2023-02-25T11:15:46.886Z,5.86
2023-02-25T11:18:56.630Z,6.02
2023-02-25T11:22:01.402Z,6.30
2023-02-25T11:25:07.343Z,6.01
2023-02-25T11:28:22.065Z,5.91
2023-02-25T11:31:33.239Z,5.73
2023-02-25T11:34:44.694Z,5.78
2023-02-25T11:37:48.247Z,5.96
2023-02-25T11:40:50.384Z,5.98
2023-02-25T11:43:53.880Z,5.90
2023-02-25T11:47:03.312Z,6.06
2023-02-25T11:50:20.642Z,5.99
2023-02-25T11:53:27.908Z,6.13
2023-02-25T11:56:32.081Z,6.31
2023-02-25T11:59:37.867Z,6.27
2023-02-25T12:02:51.585Z,6.16
2023-02-25T12:06:09.401Z,6.42
2023-02-25T12:09:45.038Z,6.74
2023-02-25T12:13:15.195Z,6.79
2023-02-25T12:16:52.622Z,6.68
2023-02-25T12:20:33.530Z,6.69
2023-02-25T12:24:16.316Z,7.01
2023-02-25T12:27:51.194Z,6.86
2023-02-25T12:31:13.720Z,6.66
2023-02-25T12:34:46.623Z,6.80
2023-02-25T12:38:37.724Z,6.76
2023-02-25T12:41:46.702Z,6.59
2023-02-25T12:45:15.244Z,6.55
2023-02-25T12:49:02.624Z,6.50
2023-02-25T12:52:18.812Z,6.74
2023-02-25T12:55:36.795Z,6.87
2023-02-25T12:58:55.865Z,6.74
2023-02-25T13:02:22.433Z,6.76
2023-02-25T13:05:55.729Z,6.65
2023-02-25T13:09:11.972Z,6.49
2023-02-25T13:12:36.142Z,5.52
2023-02-25T13:16:01.242Z,4.72
2023-02-25T13:19:20.927Z,4.15
2023-02-25T13:22:40.863Z,3.99
2023-02-25T13:26:02.495Z,4.46
2023-02-25T13:29:18.843Z,4.64
2023-02-25T13:32:32.703Z,4.43
2023-02-25T13:35:45.054Z,3.90
2023-02-25T13:39:08.979Z,4.25
2023-02-25T13:42:30.858Z,4.70
2023-02-25T13:45:50.535Z,5.15
2023-02-25T13:49:30.445Z,5.49
2023-02-25T13:52:43.495Z,6.35
2023-02-25T13:56:10.205Z,8.07
2023-02-25T13:59:22.301Z,8.06
2023-02-25T14:02:46.473Z,7.10
2023-02-25T14:06:03.089Z,7.96
2023-02-25T14:09:28.395Z,7.38
2023-02-25T14:12:46.235Z,8.28
2023-02-25T14:16:01.095Z,8.78
2023-02-25T14:19:20.632Z,7.62
2023-02-25T14:22:36.547Z,7.90
2023-02-25T14:26:08.181Z,8.30
2023-02-25T14:29:18.936Z,8.39
2023-02-25T14:32:37.700Z,8.56
2023-02-25T14:35:51.997Z,8.90
2023-02-25T14:39:20.395Z,8.71
2023-02-25T14:42:55.701Z,8.70
2023-02-25T14:46:04.595Z,7.81
2023-02-25T14:49:15.075Z,6.71
2023-02-25T14:52:33.902Z,6.37
2023-02-25T14:56:23.839Z,6.78
2023-02-25T14:59:55.179Z,6.08
2023-02-25T15:03:22.237Z,6.54
2023-02-25T15:06:36.539Z,6.14
2023-02-25T15:10:10.137Z,5.98
2023-02-25T15:13:50.758Z,5.82
2023-02-25T15:17:40.374Z,6.25
2023-02-25T15:20:45.279Z,6.54
2023-02-25T15:23:50.858Z,6.61
2023-02-25T15:26:53.850Z,7.08
2023-02-25T15:29:59.292Z,7.36
2023-02-25T15:33:21.909Z,5.11
2023-02-25T15:36:40.770Z,3.18
2023-02-25T15:39:51.725Z,2.43
2023-02-25T15:42:57.060Z,2.09
2023-02-25T15:46:37.340Z,1.59
2023-02-25T15:49:46.299Z,1.56
2023-02-25T15:52:56.539Z,1.72
2023-02-25T15:56:37.668Z,1.61
2023-02-25T15:59:45.007Z,1.88
2023-02-25T16:02:58.378Z,2.21
2023-02-25T16:06:03.447Z,2.01
2023-02-25T16:09:10.780Z,1.92
2023-02-25T16:12:14.949Z,1.82
2023-02-25T16:15:25.809Z,1.89
2023-02-25T16:18:34.571Z,1.98
2023-02-25T16:21:40.530Z,2.02
2023-02-25T16:24:47.246Z,1.99
2023-02-25T16:27:57.460Z,1.76
2023-02-25T16:31:10.629Z,1.64
2023-02-25T16:34:19.055Z,1.61
2023-02-25T16:37:28.807Z,1.56
2023-02-25T16:40:34.936Z,1.50
2023-02-25T16:43:39.190Z,1.46
2023-02-25T16:46:41.730Z,1.48
2023-02-25T16:49:47.192Z,1.62
2023-02-25T16:52:50.430Z,1.56
2023-02-25T16:55:58.204Z,1.57
2023-02-25T16:59:05.056Z,1.52
2023-02-25T17:02:23.256Z,1.31
2023-02-25T17:05:30.893Z,1.29
2023-02-25T17:08:33.250Z,1.26
2023-02-25T17:11:35.256Z,1.21
2023-02-25T17:14:37.373Z,1.23
2023-02-25T17:17:43.109Z,1.29
2023-02-25T17:20:46.711Z,1.27
2023-02-25T17:23:49.291Z,1.27
2023-02-25T17:26:53.442Z,1.28
2023-02-25T17:29:55.675Z,1.31
2023-02-25T17:32:59.108Z,1.43
2023-02-25T17:36:07.774Z,1.42
2023-02-25T17:39:15.110Z,1.43
2023-02-25T17:42:34.540Z,1.42
2023-02-25T17:45:48.134Z,1.31
2023-02-25T17:48:52.892Z,1.27
2023-02-25T17:51:58.680Z,1.18
2023-02-25T17:55:07.022Z,1.11
2023-02-25T17:58:22.753Z,0.99
2023-02-25T18:01:29.610Z,0.95
2023-02-25T18:04:35.041Z,0.98
2023-02-25T18:07:40.071Z,1.04
2023-02-25T18:10:57.296Z,1.11
2023-02-25T18:14:02.054Z,1.26
2023-02-25T18:17:13.926Z,1.37
2023-02-25T18:20:27.778Z,1.42
2023-02-25T18:23:32.022Z,1.51
2023-02-25T18:26:34.250Z,1.71
2023-02-25T18:29:36.173Z,1.94
2023-02-25T18:32:40.568Z,2.11
2023-02-25T18:35:45.749Z,2.08
2023-02-25T18:38:50.316Z,2.23
2023-02-25T18:41:52.314Z,2.25
2023-02-25T18:44:54.113Z,2.07
2023-02-25T18:47:56.993Z,1.96
2023-02-25T18:50:59.193Z,2.13
2023-02-25T18:54:02.427Z,1.94
2023-02-25T18:57:13.433Z,1.91
2023-02-25T19:00:17.927Z,1.92
2023-02-25T19:03:28.195Z,1.81
2023-02-25T19:06:31.899Z,1.77
2023-02-25T19:09:34.994Z,1.64
2023-02-25T19:12:37.180Z,1.67
2023-02-25T19:15:38.945Z,1.66
2023-02-25T19:18:42.775Z,1.51
2023-02-25T19:21:44.507Z,1.43
2023-02-25T19:24:48.741Z,1.41
2023-02-25T19:27:51.861Z,1.28
2023-02-25T19:30:53.618Z,1.26
2023-02-25T19:33:55.570Z,1.23
2023-02-25T19:36:57.321Z,1.18
2023-02-25T19:40:00.475Z,0.92
2023-02-25T19:43:04.647Z,0.91
2023-02-25T19:46:07.873Z,0.57
2023-02-25T19:49:09.731Z,0.56
2023-02-25T19:52:12.167Z,0.53
2023-02-25T19:55:15.506Z,0.21
2023-02-25T19:58:19.579Z,0.20
2023-02-25T20:01:21.581Z,0.23
2023-02-25T20:04:28.847Z,0.25
2023-02-25T20:07:31.783Z,0.62
2023-02-25T20:10:35.125Z,0.89
2023-02-25T20:13:38.346Z,0.73
2023-02-25T20:16:42.214Z,0.60
2023-02-25T20:19:44.148Z,0.74
2023-02-25T20:22:46.114Z,0.83
2023-02-25T20:25:49.246Z,0.90
2023-02-25T20:28:53.999Z,0.87
2023-02-25T20:31:56.652Z,0.94
2023-02-25T20:34:59.068Z,0.93
2023-02-25T20:38:13.877Z,0.80
2023-02-25T20:41:18.268Z,0.78
2023-02-25T20:44:20.279Z,0.80
2023-02-25T20:47:23.860Z,0.84
2023-02-25T20:50:28.230Z,0.74
2023-02-25T20:53:32.064Z,0.56
2023-02-25T20:56:36.556Z,0.37
2023-02-25T20:59:38.414Z,0.14
2023-02-25T21:02:40.324Z,-0.02
2023-02-25T21:05:42.126Z,-0.19
2023-02-25T21:08:43.937Z,-0.18
2023-02-25T21:11:47.151Z,-0.47
2023-02-25T21:14:49.087Z,-0.58
2023-02-25T21:17:50.735Z,-0.52
2023-02-25T21:20:57.847Z,-0.63
2023-02-25T21:23:59.524Z,-0.77
2023-02-25T21:27:03.218Z,-0.78
2023-02-25T21:30:06.486Z,-0.96
2023-02-25T21:33:08.702Z,-0.90
2023-02-25T21:36:11.571Z,-0.79
2023-02-25T21:39:13.329Z,-0.93
2023-02-25T21:42:16.496Z,-1.02
2023-02-25T21:45:18.509Z,-1.08
2023-02-25T21:48:20.794Z,-1.12
2023-02-25T21:51:24.722Z,-1.11
2023-02-25T21:54:26.606Z,-1.20
2023-02-25T21:57:29.975Z,-1.18
2023-02-25T22:00:32.116Z,-1.04
2023-02-25T22:03:36.703Z,-1.04
2023-02-25T22:06:38.581Z,-0.94
2023-02-25T22:09:40.575Z,-1.04
2023-02-25T22:12:44.001Z,-1.09
2023-02-25T22:15:47.178Z,-1.14
2023-02-25T22:18:58.624Z,-1.28
2023-02-25T22:22:03.273Z,-1.38
2023-02-25T22:25:05.890Z,-1.28
2023-02-25T22:28:09.252Z,-1.42
2023-02-25T22:31:12.332Z,-1.56
2023-02-25T22:34:14.456Z,-1.49
2023-02-25T22:37:16.460Z,-1.57
2023-02-25T22:40:18.432Z,-1.60
2023-02-25T22:43:21.640Z,-1.53
2023-02-25T22:46:26.416Z,-1.55
2023-02-25T22:49:28.513Z,-1.73
2023-02-25T22:52:30.528Z,-1.80
2023-02-25T22:55:33.050Z,-1.74
2023-02-25T22:58:40.661Z,-1.90
2023-02-25T23:01:42.449Z,-1.75
2023-02-25T23:04:44.439Z,-1.77
2023-02-25T23:07:46.226Z,-1.73
2023-02-25T23:10:48.222Z,-1.74
2023-02-25T23:13:53.897Z,-1.75
2023-02-25T23:16:55.384Z,-1.64
2023-02-25T23:20:00.247Z,-1.67
2023-02-25T23:23:04.859Z,-1.75
2023-02-25T23:26:08.381Z,-1.80
2023-02-25T23:29:12.682Z,-2.01
2023-02-25T23:32:14.693Z,-2.04
2023-02-25T23:35:16.589Z,-2.09
2023-02-25T23:38:18.794Z,-2.14
2023-02-25T23:41:20.901Z,-2.09
2023-02-25T23:44:24.399Z,-2.11
2023-02-25T23:47:26.396Z,-2.05
2023-02-25T23:50:28.306Z,-2.02
2023-02-25T23:53:30.208Z,-1.91
2023-02-25T23:56:33.030Z,-1.79
2023-02-25T23:59:36.165Z,-1.60
